createdAt,value
2023-05-17T00:00:07.370Z,6.90
2023-05-17T00:01:07.332Z,6.87
2023-05-17T00:02:07.313Z,6.87
2023-05-17T00:03:07.340Z,6.90
2023-05-17T00:04:07.312Z,6.94
2023-05-17T00:05:07.288Z,6.90
2023-05-17T00:06:07.320Z,6.98
2023-05-17T00:07:07.267Z,6.89
2023-05-17T00:08:07.312Z,6.91
2023-05-17T00:09:07.262Z,7.01
2023-05-17T00:10:07.282Z,6.99
2023-05-17T00:11:07.250Z,6.90
2023-05-17T00:12:07.252Z,6.89
2023-05-17T00:13:07.216Z,6.90
2023-05-17T00:14:07.310Z,6.87
2023-05-17T00:15:07.222Z,6.97
2023-05-17T00:16:07.316Z,6.90
2023-05-17T00:17:07.217Z,6.86
2023-05-17T00:18:07.276Z,6.89
2023-05-17T00:19:07.354Z,6.81
2023-05-17T00:20:07.203Z,6.69
2023-05-17T00:21:07.204Z,6.71
2023-05-17T00:22:07.178Z,6.71
2023-05-17T00:23:07.180Z,6.72
2023-05-17T00:24:07.177Z,6.66
2023-05-17T00:25:07.164Z,6.69
2023-05-17T00:26:07.160Z,6.58
2023-05-17T00:27:08.138Z,6.66
2023-05-17T00:28:07.133Z,6.59
2023-05-17T00:29:07.163Z,6.62
2023-05-17T00:30:07.242Z,6.61
2023-05-17T00:31:07.169Z,6.59
2023-05-17T00:32:07.124Z,6.59
2023-05-17T00:33:07.154Z,6.59
2023-05-17T00:34:07.120Z,6.63
2023-05-17T00:35:07.162Z,6.56
2023-05-17T00:36:07.073Z,6.61
2023-05-17T00:37:07.071Z,6.59
2023-05-17T00:38:07.090Z,6.47
2023-05-17T00:39:07.075Z,6.44
2023-05-17T00:40:07.064Z,6.47
2023-05-17T00:41:07.040Z,6.48
2023-05-17T00:42:07.045Z,6.41
2023-05-17T00:43:07.028Z,6.41
2023-05-17T00:44:07.032Z,6.48
2023-05-17T00:45:07.038Z,6.35
2023-05-17T00:46:07.027Z,6.46
2023-05-17T00:47:07.035Z,6.38
2023-05-17T00:48:07.146Z,6.33
2023-05-17T00:49:07.033Z,6.33
2023-05-17T00:50:07.014Z,6.41
2023-05-17T00:51:07.013Z,6.32
2023-05-17T00:52:06.988Z,6.33
2023-05-17T00:53:06.975Z,6.32
2023-05-17T00:54:06.952Z,6.18
2023-05-17T00:55:06.965Z,6.29
2023-05-17T00:56:06.995Z,6.29
2023-05-17T00:57:07.000Z,6.21
2023-05-17T00:58:06.946Z,6.35
2023-05-17T00:59:06.935Z,6.33
2023-05-17T01:00:06.946Z,6.36
2023-05-17T01:01:06.938Z,6.30
2023-05-17T01:02:06.987Z,6.36
2023-05-17T01:03:06.999Z,6.30
2023-05-17T01:04:07.015Z,6.30
2023-05-17T01:05:07.243Z,6.41
2023-05-17T01:06:06.895Z,6.41
2023-05-17T01:07:06.985Z,6.47
2023-05-17T01:08:06.879Z,6.50
2023-05-17T01:09:06.865Z,6.65
2023-05-17T01:10:06.867Z,6.69
2023-05-17T01:11:06.856Z,6.76
2023-05-17T01:12:06.857Z,6.83
2023-05-17T01:13:06.855Z,6.86
2023-05-17T01:14:06.828Z,6.83
2023-05-17T01:15:06.844Z,6.86
2023-05-17T01:16:06.832Z,6.90
2023-05-17T01:17:06.851Z,6.97
2023-05-17T01:18:07.043Z,7.04
2023-05-17T01:19:06.869Z,7.05
2023-05-17T01:20:07.878Z,6.99
2023-05-17T01:21:06.795Z,7.08
2023-05-17T01:22:06.808Z,7.09
2023-05-17T01:23:06.791Z,7.19
2023-05-17T01:24:06.771Z,7.16
2023-05-17T01:25:06.776Z,7.17
2023-05-17T01:26:06.770Z,7.22
2023-05-17T01:27:06.768Z,7.31
2023-05-17T01:28:06.746Z,7.26
2023-05-17T01:29:06.733Z,7.17
2023-05-17T01:30:06.741Z,7.24
2023-05-17T01:31:06.728Z,7.24
2023-05-17T01:32:06.715Z,7.26
2023-05-17T01:33:06.858Z,7.27
2023-05-17T01:34:06.823Z,7.20
2023-05-17T01:35:06.703Z,7.22
2023-05-17T01:36:06.714Z,7.29
2023-05-17T01:37:06.686Z,7.23
2023-05-17T01:38:06.683Z,7.20
2023-05-17T01:39:06.677Z,7.29
2023-05-17T01:40:06.661Z,7.29
2023-05-17T01:41:06.647Z,7.27
2023-05-17T01:42:06.666Z,7.23
2023-05-17T01:43:06.647Z,7.24
2023-05-17T01:44:06.679Z,7.31
2023-05-17T01:45:06.647Z,7.24
2023-05-17T01:46:06.630Z,7.26
2023-05-17T01:47:06.632Z,7.31
2023-05-17T01:48:06.732Z,7.31
2023-05-17T01:49:06.618Z,7.19
2023-05-17T01:50:06.676Z,7.29
2023-05-17T01:51:06.617Z,7.20
2023-05-17T01:52:06.584Z,7.24
2023-05-17T01:53:06.589Z,7.20
2023-05-17T01:54:06.573Z,7.19
2023-05-17T01:55:06.571Z,7.23
2023-05-17T01:56:07.074Z,7.16
2023-05-17T01:57:06.553Z,7.08
2023-05-17T01:58:06.534Z,7.16
2023-05-17T01:59:06.560Z,6.99
2023-05-17T02:00:06.554Z,6.98
2023-05-17T02:01:06.526Z,7.05
2023-05-17T02:02:06.559Z,6.90
2023-05-17T02:03:06.516Z,6.95
2023-05-17T02:04:06.515Z,6.94
2023-05-17T02:05:06.576Z,6.94
2023-05-17T02:06:06.546Z,6.91
2023-05-17T02:07:06.505Z,6.90
2023-05-17T02:08:06.473Z,6.97
2023-05-17T02:09:06.461Z,7.05
2023-05-17T02:10:06.456Z,7.07
2023-05-17T02:11:06.462Z,7.02
2023-05-17T02:12:06.473Z,7.13
2023-05-17T02:13:06.439Z,7.08
2023-05-17T02:14:06.452Z,7.09
2023-05-17T02:15:06.413Z,7.07
2023-05-17T02:16:06.438Z,7.12
2023-05-17T02:17:06.413Z,7.13
2023-05-17T02:18:06.468Z,7.13
2023-05-17T02:19:06.448Z,7.07
2023-05-17T02:20:06.389Z,7.05
2023-05-17T02:21:06.398Z,7.07
2023-05-17T02:22:06.460Z,7.05
2023-05-17T02:23:06.378Z,6.95
2023-05-17T02:24:06.382Z,7.02
2023-05-17T02:25:06.370Z,6.98
2023-05-17T02:26:06.344Z,6.86
2023-05-17T02:27:06.342Z,7.04
2023-05-17T02:28:06.340Z,7.04
2023-05-17T02:29:06.326Z,7.08
2023-05-17T02:30:06.321Z,7.02
2023-05-17T02:31:06.313Z,6.98
2023-05-17T02:32:06.320Z,6.97
2023-05-17T02:33:06.417Z,6.98
2023-05-17T02:34:06.291Z,6.83
2023-05-17T02:35:06.280Z,6.81
2023-05-17T02:36:06.277Z,6.86
2023-05-17T02:37:06.289Z,6.86
2023-05-17T02:38:06.410Z,6.87
2023-05-17T02:39:06.256Z,6.77
2023-05-17T02:40:06.266Z,6.94
2023-05-17T02:41:06.252Z,6.79
2023-05-17T02:42:06.248Z,6.89
2023-05-17T02:43:06.238Z,6.84
2023-05-17T02:44:06.226Z,6.87
2023-05-17T02:45:06.216Z,6.87
2023-05-17T02:46:06.227Z,6.90
2023-05-17T02:47:06.294Z,6.95
2023-05-17T02:48:06.285Z,6.89
2023-05-17T02:49:06.207Z,6.83
2023-05-17T02:50:06.200Z,6.90
2023-05-17T02:51:06.201Z,6.83
2023-05-17T02:52:06.238Z,6.94
2023-05-17T02:53:06.176Z,6.83
2023-05-17T02:54:06.250Z,6.87
2023-05-17T02:55:06.159Z,6.83
2023-05-17T02:56:06.159Z,6.89
2023-05-17T02:57:06.153Z,6.99
2023-05-17T02:58:06.160Z,6.99
2023-05-17T02:59:06.155Z,7.05
2023-05-17T03:00:06.165Z,7.04
2023-05-17T03:01:06.121Z,7.01
2023-05-17T03:02:06.114Z,7.16
2023-05-17T03:03:06.142Z,7.16
2023-05-17T03:04:06.268Z,7.27
2023-05-17T03:05:06.114Z,7.23
2023-05-17T03:06:06.112Z,7.23
2023-05-17T03:07:07.132Z,7.29
2023-05-17T03:08:07.080Z,7.27
2023-05-17T03:09:06.066Z,7.26
2023-05-17T03:10:06.221Z,7.37
2023-05-17T03:11:06.074Z,7.35
2023-05-17T03:12:06.062Z,7.56
2023-05-17T03:13:06.067Z,7.56
2023-05-17T03:14:06.041Z,7.62
2023-05-17T03:15:06.038Z,7.69
2023-05-17T03:16:06.017Z,7.55
2023-05-17T03:17:06.041Z,7.60
2023-05-17T03:18:06.131Z,7.58
2023-05-17T03:19:06.164Z,7.71
2023-05-17T03:20:05.992Z,7.58
2023-05-17T03:21:06.019Z,7.67
2023-05-17T03:22:05.993Z,7.56
2023-05-17T03:23:06.987Z,7.62
2023-05-17T03:24:05.979Z,7.52
2023-05-17T03:25:05.954Z,7.58
2023-05-17T03:26:06.026Z,7.69
2023-05-17T03:27:05.980Z,7.60
2023-05-17T03:28:05.948Z,7.74
2023-05-17T03:29:05.928Z,7.72
2023-05-17T03:30:05.928Z,7.72
2023-05-17T03:31:05.989Z,7.63
2023-05-17T03:32:05.914Z,7.77
2023-05-17T03:33:05.989Z,7.67
2023-05-17T03:34:05.994Z,7.74
2023-05-17T03:35:05.921Z,7.67
2023-05-17T03:36:05.897Z,7.72
2023-05-17T03:37:05.902Z,7.74
2023-05-17T03:38:05.874Z,7.75
2023-05-17T03:39:05.912Z,7.71
2023-05-17T03:40:05.903Z,7.79
2023-05-17T03:41:05.873Z,7.72
2023-05-17T03:42:06.062Z,7.75
2023-05-17T03:43:05.844Z,7.77
2023-05-17T03:44:05.853Z,7.85
2023-05-17T03:45:05.829Z,7.79
2023-05-17T03:46:05.846Z,7.89
2023-05-17T03:47:05.820Z,7.96
2023-05-17T03:48:05.852Z,7.93
2023-05-17T03:49:05.872Z,8.04
2023-05-17T03:50:05.796Z,8.08
2023-05-17T03:51:05.803Z,8.10
2023-05-17T03:52:05.781Z,8.10
2023-05-17T03:53:05.764Z,8.20
2023-05-17T03:54:05.772Z,8.29
2023-05-17T03:55:05.761Z,8.28
2023-05-17T03:56:05.786Z,8.28
2023-05-17T03:57:05.758Z,8.29
2023-05-17T03:58:05.976Z,8.26
2023-05-17T03:59:05.782Z,8.30
2023-05-17T04:00:05.727Z,8.30
2023-05-17T04:01:05.743Z,8.32
2023-05-17T04:02:05.723Z,8.32
2023-05-17T04:03:05.742Z,8.35
2023-05-17T04:04:05.753Z,8.50
2023-05-17T04:05:05.741Z,8.44
2023-05-17T04:06:05.704Z,8.54
2023-05-17T04:07:05.681Z,8.53
2023-05-17T04:08:05.669Z,8.55
2023-05-17T04:09:05.818Z,8.51
2023-05-17T04:10:05.665Z,8.62
2023-05-17T04:11:05.640Z,8.58
2023-05-17T04:12:05.674Z,8.44
2023-05-17T04:13:05.639Z,8.48
2023-05-17T04:14:05.736Z,8.47
2023-05-17T04:15:05.639Z,8.53
2023-05-17T04:16:05.622Z,8.57
2023-05-17T04:17:05.620Z,8.58
2023-05-17T04:18:05.671Z,8.65
2023-05-17T04:19:05.707Z,8.65
2023-05-17T04:20:05.586Z,8.58
2023-05-17T04:21:06.572Z,8.58
2023-05-17T04:22:05.572Z,8.51
2023-05-17T04:23:05.571Z,8.51
2023-05-17T04:24:05.564Z,8.45
2023-05-17T04:25:05.592Z,8.47
2023-05-17T04:26:05.576Z,8.48
2023-05-17T04:27:05.550Z,8.48
2023-05-17T04:28:05.532Z,8.53
2023-05-17T04:29:05.532Z,8.57
2023-05-17T04:30:05.596Z,8.65
2023-05-17T04:31:05.580Z,8.58
2023-05-17T04:32:05.503Z,8.68
2023-05-17T04:33:05.563Z,8.78
2023-05-17T04:34:05.549Z,8.91
2023-05-17T04:35:05.489Z,8.93
2023-05-17T04:36:05.492Z,8.90
2023-05-17T04:37:05.476Z,8.99
2023-05-17T04:38:05.483Z,8.94
2023-05-17T04:39:05.463Z,8.99
2023-05-17T04:40:05.454Z,9.02
2023-05-17T04:41:05.442Z,9.06
2023-05-17T04:42:05.438Z,9.16
2023-05-17T04:43:05.448Z,9.21
2023-05-17T04:44:05.462Z,9.13
2023-05-17T04:45:05.481Z,9.24
2023-05-17T04:46:05.550Z,9.32
2023-05-17T04:47:05.427Z,9.35
2023-05-17T04:48:05.495Z,9.38
2023-05-17T04:49:05.443Z,9.45
2023-05-17T04:50:05.389Z,9.49
2023-05-17T04:51:05.409Z,9.42
2023-05-17T04:52:06.272Z,9.50
2023-05-17T04:53:06.367Z,9.52
2023-05-17T04:54:05.350Z,9.43
2023-05-17T04:55:05.343Z,9.57
2023-05-17T04:56:05.370Z,9.58
2023-05-17T04:57:05.347Z,9.60
2023-05-17T04:58:05.337Z,9.58
2023-05-17T04:59:05.333Z,9.67
2023-05-17T05:00:05.322Z,9.66
2023-05-17T05:01:05.307Z,9.68
2023-05-17T05:02:05.437Z,9.71
2023-05-17T05:03:05.451Z,9.67
2023-05-17T05:04:05.416Z,9.85
2023-05-17T05:05:05.362Z,9.89
2023-05-17T05:06:05.273Z,9.86
2023-05-17T05:07:05.286Z,9.89
2023-05-17T05:08:05.256Z,9.97
2023-05-17T05:09:05.255Z,9.94
2023-05-17T05:10:05.257Z,10.00
2023-05-17T05:11:05.232Z,10.10
2023-05-17T05:12:05.252Z,10.06
2023-05-17T05:13:05.255Z,10.12
2023-05-17T05:14:05.218Z,10.12
2023-05-17T05:15:05.235Z,10.17
2023-05-17T05:16:05.207Z,10.26
2023-05-17T05:17:05.206Z,10.15
2023-05-17T05:18:05.350Z,10.21
2023-05-17T05:19:05.279Z,10.15
2023-05-17T05:20:05.184Z,10.21
2023-05-17T05:21:05.172Z,10.25
2023-05-17T05:22:05.177Z,10.33
2023-05-17T05:23:05.176Z,10.42
2023-05-17T05:24:05.178Z,10.40
2023-05-17T05:25:05.175Z,10.46
2023-05-17T05:26:05.149Z,10.46
2023-05-17T05:27:07.052Z,10.52
2023-05-17T05:28:06.128Z,10.52
2023-05-17T05:29:05.134Z,10.58
2023-05-17T05:30:05.120Z,10.65
2023-05-17T05:31:05.114Z,10.62
2023-05-17T05:32:05.112Z,10.74
2023-05-17T05:33:05.152Z,10.71
2023-05-17T05:34:05.344Z,10.91
2023-05-17T05:35:05.375Z,10.92
2023-05-17T05:36:05.062Z,10.98
2023-05-17T05:37:05.060Z,10.98
2023-05-17T05:38:05.069Z,11.14
2023-05-17T05:39:05.863Z,11.19
2023-05-17T05:40:05.054Z,11.19
2023-05-17T05:41:05.069Z,11.06
2023-05-17T05:42:05.039Z,11.06
2023-05-17T05:43:05.029Z,11.10
2023-05-17T05:44:05.122Z,11.07
2023-05-17T05:45:05.011Z,11.19
2023-05-17T05:46:05.130Z,11.19
2023-05-17T05:47:05.015Z,11.32
2023-05-17T05:48:05.090Z,11.39
2023-05-17T05:49:05.045Z,11.44
2023-05-17T05:50:05.051Z,11.67
2023-05-17T05:51:05.023Z,11.67
2023-05-17T05:52:04.974Z,11.68
2023-05-17T05:53:17.067Z,11.77
2023-05-17T05:54:07.014Z,11.57
2023-05-17T05:55:04.984Z,11.74
2023-05-17T05:56:04.959Z,11.94
2023-05-17T05:57:04.941Z,11.97
2023-05-17T05:58:04.924Z,12.12
2023-05-17T05:59:04.959Z,12.12
2023-05-17T06:00:04.937Z,12.27
2023-05-17T06:01:06.302Z,12.19
2023-05-17T06:02:05.923Z,12.20
2023-05-17T06:03:04.947Z,12.16
2023-05-17T06:04:04.911Z,12.08
2023-05-17T06:05:04.895Z,12.05
2023-05-17T06:06:05.171Z,12.01
2023-05-17T06:07:04.944Z,11.89
2023-05-17T06:08:04.875Z,11.83
2023-05-17T06:09:04.881Z,11.82
2023-05-17T06:10:04.864Z,11.86
2023-05-17T06:11:04.863Z,11.77
2023-05-17T06:12:04.847Z,11.75
2023-05-17T06:13:04.843Z,11.80
2023-05-17T06:14:04.944Z,11.82
2023-05-17T06:15:04.831Z,11.83
2023-05-17T06:16:06.032Z,11.93
2023-05-17T06:17:04.817Z,12.01
2023-05-17T06:18:04.933Z,12.02
2023-05-17T06:19:04.909Z,12.12
2023-05-17T06:20:04.966Z,12.11
2023-05-17T06:21:04.793Z,12.27
2023-05-17T06:22:04.870Z,12.19
2023-05-17T06:23:04.780Z,12.38
2023-05-17T06:24:05.263Z,12.33
2023-05-17T06:25:05.796Z,12.21
2023-05-17T06:26:04.761Z,12.37
2023-05-17T06:27:04.749Z,12.33
2023-05-17T06:28:04.748Z,12.54
2023-05-17T06:29:04.761Z,12.51
2023-05-17T06:30:06.473Z,12.60
2023-05-17T06:31:04.725Z,12.56
2023-05-17T06:32:04.724Z,12.71
2023-05-17T06:33:04.772Z,12.77
2023-05-17T06:34:04.819Z,12.97
2023-05-17T06:35:04.721Z,13.00
2023-05-17T06:36:04.704Z,13.17
2023-05-17T06:37:04.673Z,13.41
2023-05-17T06:38:04.831Z,13.76
2023-05-17T06:39:04.660Z,14.06
2023-05-17T06:41:05.645Z,14.80
2023-05-17T06:42:04.657Z,14.90
2023-05-17T06:43:04.626Z,14.84
2023-05-17T06:44:04.616Z,14.75
2023-05-17T06:45:04.659Z,14.71
2023-05-17T06:46:04.608Z,14.71
2023-05-17T06:47:04.652Z,14.71
2023-05-17T06:48:04.694Z,14.83
2023-05-17T06:49:04.719Z,14.91
2023-05-17T06:50:04.582Z,15.05
2023-05-17T06:51:04.557Z,15.21
2023-05-17T06:52:05.585Z,15.33
2023-05-17T06:53:04.561Z,15.43
2023-05-17T06:54:04.680Z,15.28
2023-05-17T06:55:04.555Z,15.06
2023-05-17T06:56:04.525Z,14.84
2023-05-17T06:57:04.557Z,14.74
2023-05-17T06:58:04.559Z,14.84
2023-05-17T06:59:05.184Z,14.80
2023-05-17T07:00:04.518Z,14.64
2023-05-17T07:01:04.508Z,14.56
2023-05-17T07:02:04.549Z,14.54
2023-05-17T07:03:04.562Z,14.46
2023-05-17T07:04:04.510Z,14.37
2023-05-17T07:05:04.492Z,14.19
2023-05-17T07:06:04.460Z,14.28
2023-05-17T07:07:04.508Z,14.24
2023-05-17T07:08:04.436Z,14.14
2023-05-17T07:09:05.462Z,14.09
2023-05-17T07:10:04.497Z,13.95
2023-05-17T07:11:04.445Z,13.79
2023-05-17T07:12:04.439Z,13.65
2023-05-17T07:13:04.623Z,13.67
2023-05-17T07:14:04.396Z,13.59
2023-05-17T07:15:04.410Z,13.67
2023-05-17T07:16:04.383Z,13.73
2023-05-17T07:17:04.375Z,14.12
2023-05-17T07:18:04.492Z,14.49
2023-05-17T07:19:04.504Z,15.33
2023-05-17T07:20:04.389Z,16.01
2023-05-17T07:21:04.348Z,16.78
2023-05-17T07:22:04.370Z,16.81
2023-05-17T07:23:04.353Z,17.29
2023-05-17T07:24:04.333Z,17.71
2023-05-17T07:25:04.327Z,18.10
2023-05-17T07:26:04.431Z,18.55
2023-05-17T07:27:04.313Z,19.06
2023-05-17T07:28:04.327Z,19.50
2023-05-17T07:29:05.093Z,19.70
2023-05-17T07:30:04.295Z,19.98
2023-05-17T07:31:05.301Z,19.97
2023-05-17T07:32:04.284Z,20.38
2023-05-17T07:33:04.320Z,20.87
2023-05-17T07:34:05.291Z,21.05
2023-05-17T07:35:04.304Z,20.66
2023-05-17T07:36:04.292Z,20.38
2023-05-17T07:37:04.240Z,19.91
2023-05-17T07:38:04.236Z,19.48
2023-05-17T07:39:04.268Z,18.99
2023-05-17T07:40:04.229Z,18.61
2023-05-17T07:41:04.241Z,18.58
2023-05-17T07:42:05.634Z,18.97
2023-05-17T07:43:05.211Z,19.47
2023-05-17T07:44:04.227Z,19.69
2023-05-17T07:45:04.187Z,19.32
2023-05-17T07:46:04.198Z,19.95
2023-05-17T07:47:04.202Z,19.78
2023-05-17T07:48:04.338Z,19.50
2023-05-17T07:49:04.300Z,19.24
2023-05-17T07:50:04.190Z,18.73
2023-05-17T07:51:04.145Z,18.36
2023-05-17T07:52:04.166Z,18.06
2023-05-17T07:53:04.150Z,17.70
2023-05-17T07:54:04.154Z,17.71
2023-05-17T07:55:04.181Z,17.66
2023-05-17T07:56:04.114Z,17.67
2023-05-17T07:57:05.091Z,17.70
2023-05-17T07:58:04.251Z,17.64
2023-05-17T07:59:04.113Z,17.81
2023-05-17T08:00:05.087Z,18.36
2023-05-17T08:01:04.111Z,18.64
2023-05-17T08:02:04.067Z,18.80
2023-05-17T08:03:04.114Z,18.91
2023-05-17T08:04:04.626Z,19.10
2023-05-17T08:05:04.058Z,18.94
2023-05-17T08:06:04.119Z,18.67
2023-05-17T08:07:04.030Z,18.43
2023-05-17T08:08:04.035Z,18.25
2023-05-17T08:09:04.041Z,17.67
2023-05-17T08:10:04.275Z,17.33
2023-05-17T08:11:04.032Z,17.07
2023-05-17T08:12:04.001Z,16.96
2023-05-17T08:13:04.009Z,16.88
2023-05-17T08:14:04.010Z,16.77
2023-05-17T08:15:04.069Z,16.67
2023-05-17T08:16:12.573Z,16.65
2023-05-17T08:17:05.976Z,16.44
2023-05-17T08:18:05.000Z,16.33
2023-05-17T08:19:05.170Z,16.18
2023-05-17T08:20:03.978Z,16.00
2023-05-17T08:21:03.985Z,15.81
2023-05-17T08:22:03.949Z,16.00
2023-05-17T08:23:03.929Z,16.06
2023-05-17T08:24:04.257Z,16.18
2023-05-17T08:25:04.931Z,16.22
2023-05-17T08:26:03.952Z,16.14
2023-05-17T08:27:03.895Z,16.33
2023-05-17T08:28:03.886Z,17.78
2023-05-17T08:29:03.883Z,19.10
2023-05-17T08:30:07.012Z,19.21
2023-05-17T08:31:05.889Z,19.08
2023-05-17T08:32:04.566Z,18.90
2023-05-17T08:33:03.931Z,18.68
2023-05-17T08:34:03.981Z,18.46
2023-05-17T08:35:03.844Z,18.17
2023-05-17T08:36:03.839Z,17.85
2023-05-17T08:37:03.895Z,17.78
2023-05-17T08:38:03.848Z,17.29
2023-05-17T08:39:03.809Z,16.99
2023-05-17T08:40:03.885Z,16.77
2023-05-17T08:41:03.815Z,16.58
2023-05-17T08:42:03.815Z,16.48
2023-05-17T08:43:03.790Z,16.49
2023-05-17T08:44:03.774Z,16.49
2023-05-17T08:45:03.786Z,16.63
2023-05-17T08:46:03.774Z,16.49
2023-05-17T08:47:03.830Z,16.73
2023-05-17T08:48:03.794Z,16.70
2023-05-17T08:49:03.958Z,16.83
2023-05-17T08:50:03.737Z,16.92
2023-05-17T08:51:03.721Z,16.60
2023-05-17T08:52:03.710Z,16.60
2023-05-17T08:53:03.713Z,16.42
2023-05-17T08:54:03.705Z,16.25
2023-05-17T08:55:03.705Z,17.07
2023-05-17T08:56:03.710Z,16.96
2023-05-17T08:57:03.670Z,16.98
2023-05-17T08:58:04.677Z,16.92
2023-05-17T08:59:03.688Z,17.11
2023-05-17T09:00:03.714Z,17.29
2023-05-17T09:01:03.667Z,17.28
2023-05-17T09:02:04.721Z,17.00
2023-05-17T09:03:03.686Z,16.99
2023-05-17T09:04:03.638Z,17.18
2023-05-17T09:05:03.857Z,16.90
2023-05-17T09:06:03.824Z,17.74
2023-05-17T09:07:03.598Z,18.03
2023-05-17T09:08:03.606Z,18.24
2023-05-17T09:09:03.597Z,18.15
2023-05-17T09:10:03.590Z,18.00
2023-05-17T09:11:03.607Z,17.84
2023-05-17T09:12:03.575Z,17.87
2023-05-17T09:13:03.562Z,17.78
2023-05-17T09:14:03.569Z,17.62
2023-05-17T09:15:03.553Z,17.73
2023-05-17T09:16:03.571Z,17.74
2023-05-17T09:17:03.553Z,17.97
2023-05-17T09:18:03.626Z,18.57
2023-05-17T09:19:03.813Z,18.36
2023-05-17T09:20:03.559Z,18.28
2023-05-17T09:21:03.515Z,18.15
2023-05-17T09:22:03.514Z,17.79
2023-05-17T09:23:03.490Z,17.48
2023-05-17T09:24:06.955Z,17.40
2023-05-17T09:25:04.491Z,18.10
2023-05-17T09:26:03.482Z,18.33
2023-05-17T09:27:03.659Z,19.50
2023-05-17T09:28:03.467Z,20.20
2023-05-17T09:29:03.517Z,20.25
2023-05-17T09:30:03.471Z,21.35
2023-05-17T09:31:03.459Z,22.49
2023-05-17T09:32:03.519Z,23.43
2023-05-17T09:33:03.434Z,24.35
2023-05-17T09:34:03.462Z,24.94
2023-05-17T09:35:03.416Z,25.69
2023-05-17T09:36:03.434Z,26.58
2023-05-17T09:37:03.403Z,27.17
2023-05-17T09:38:03.383Z,27.17
2023-05-17T09:39:03.383Z,27.43
2023-05-17T09:40:03.406Z,27.73
2023-05-17T09:41:03.388Z,27.26
2023-05-17T09:42:03.426Z,27.36
2023-05-17T09:43:03.357Z,27.13
2023-05-17T09:44:03.376Z,26.68
2023-05-17T09:45:03.360Z,25.83
2023-05-17T09:46:03.348Z,25.30
2023-05-17T09:47:03.344Z,24.68
2023-05-17T09:48:03.401Z,24.04
2023-05-17T09:49:03.619Z,23.32
2023-05-17T09:50:03.376Z,23.49
2023-05-17T09:51:03.381Z,23.26
2023-05-17T09:52:03.309Z,23.22
2023-05-17T09:53:03.299Z,23.05
2023-05-17T09:54:03.304Z,22.87
2023-05-17T09:55:03.284Z,22.54
2023-05-17T09:56:03.322Z,22.43
2023-05-17T09:57:03.277Z,23.01
2023-05-17T09:58:03.280Z,22.17
2023-05-17T09:59:03.256Z,21.39
2023-05-17T10:00:03.264Z,21.34
2023-05-17T10:01:03.262Z,21.11
2023-05-17T10:02:03.237Z,20.91
2023-05-17T10:03:03.298Z,22.27
2023-05-17T10:04:03.289Z,23.23
2023-05-17T10:05:03.261Z,24.37
2023-05-17T10:06:03.232Z,25.37
2023-05-17T10:07:03.216Z,25.69
2023-05-17T10:08:03.204Z,25.12
2023-05-17T10:09:03.195Z,24.37
2023-05-17T10:10:03.185Z,23.64
2023-05-17T10:11:03.177Z,22.96
2023-05-17T10:12:03.221Z,23.46
2023-05-17T10:13:03.170Z,23.70
2023-05-17T10:14:03.182Z,23.49
2023-05-17T10:15:03.232Z,23.22
2023-05-17T10:16:03.149Z,23.80
2023-05-17T10:17:03.575Z,24.34
2023-05-17T10:18:03.242Z,24.17
2023-05-17T10:19:03.356Z,25.00
2023-05-17T10:20:03.197Z,25.61
2023-05-17T10:21:03.151Z,26.17
2023-05-17T10:22:21.172Z,26.68
2023-05-17T10:23:05.127Z,27.19
2023-05-17T10:24:03.141Z,27.61
2023-05-17T10:25:03.102Z,27.79
2023-05-17T10:26:03.090Z,27.71
2023-05-17T10:27:03.076Z,27.77
2023-05-17T10:28:04.076Z,27.89
2023-05-17T10:29:03.076Z,28.26
2023-05-17T10:30:03.095Z,28.19
2023-05-17T10:31:03.058Z,28.72
2023-05-17T10:32:03.678Z,29.50
2023-05-17T10:33:03.181Z,30.27
2023-05-17T10:34:03.084Z,30.68
2023-05-17T10:35:11.136Z,31.02
2023-05-17T10:36:05.026Z,30.09
2023-05-17T10:37:03.023Z,28.41
2023-05-17T10:38:03.032Z,27.61
2023-05-17T10:39:03.003Z,27.05
2023-05-17T10:40:03.030Z,26.55
2023-05-17T10:41:02.995Z,26.04
2023-05-17T10:42:14.385Z,25.49
2023-05-17T10:43:04.986Z,24.64
2023-05-17T10:44:02.973Z,23.86
2023-05-17T10:45:02.966Z,23.07
2023-05-17T10:46:02.978Z,22.77
2023-05-17T10:47:02.949Z,22.59
2023-05-17T10:48:03.059Z,23.05
2023-05-17T10:49:02.991Z,23.83
2023-05-17T10:50:02.971Z,24.82
2023-05-17T10:51:02.955Z,25.46
2023-05-17T10:52:03.013Z,25.19
2023-05-17T10:53:02.950Z,25.09
2023-05-17T10:54:02.901Z,24.85
2023-05-17T10:55:02.952Z,24.82
2023-05-17T10:56:02.898Z,24.44
2023-05-17T10:57:02.932Z,24.41
2023-05-17T10:58:02.894Z,24.56
2023-05-17T10:59:02.873Z,24.57
2023-05-17T11:00:02.877Z,24.41
2023-05-17T11:01:02.896Z,24.57
2023-05-17T11:02:02.861Z,25.06
2023-05-17T11:03:02.891Z,25.69
2023-05-17T11:04:02.899Z,26.21
2023-05-17T11:05:02.909Z,26.47
2023-05-17T11:06:03.728Z,25.94
2023-05-17T11:07:05.573Z,25.77
2023-05-17T11:08:03.814Z,25.79
2023-05-17T11:09:02.813Z,26.20
2023-05-17T11:10:02.956Z,26.54
2023-05-17T11:11:02.807Z,26.46
2023-05-17T11:12:02.807Z,26.52
2023-05-17T11:13:02.800Z,26.15
2023-05-17T11:14:02.788Z,25.56
2023-05-17T11:15:02.785Z,24.95
2023-05-17T11:16:02.816Z,24.31
2023-05-17T11:17:03.770Z,23.86
2023-05-17T11:18:02.852Z,23.47
2023-05-17T11:19:02.857Z,23.26
2023-05-17T11:20:03.820Z,23.67
2023-05-17T11:21:02.832Z,23.97
2023-05-17T11:22:02.731Z,24.16
2023-05-17T11:23:02.734Z,24.44
2023-05-17T11:24:02.725Z,24.67
2023-05-17T11:25:02.753Z,25.35
2023-05-17T11:26:12.819Z,25.83
2023-05-17T11:27:04.716Z,26.28
2023-05-17T11:28:02.713Z,26.74
2023-05-17T11:29:02.715Z,26.62
2023-05-17T11:30:02.690Z,25.93
2023-05-17T11:31:02.675Z,25.68
2023-05-17T11:32:02.675Z,25.52
2023-05-17T11:33:02.790Z,25.07
2023-05-17T11:34:02.757Z,24.61
2023-05-17T11:35:02.655Z,24.31
2023-05-17T11:36:02.668Z,24.20
2023-05-17T11:37:02.645Z,23.67
2023-05-17T11:38:02.644Z,23.52
2023-05-17T11:39:08.018Z,23.98
2023-05-17T11:40:04.639Z,23.97
2023-05-17T11:41:03.552Z,23.92
2023-05-17T11:42:02.634Z,24.07
2023-05-17T11:43:02.613Z,24.34
2023-05-17T11:44:02.610Z,24.79
2023-05-17T11:45:02.698Z,24.75
2023-05-17T11:46:02.601Z,24.73
2023-05-17T11:47:02.642Z,24.67
2023-05-17T11:48:02.675Z,24.16
2023-05-17T11:49:02.594Z,23.85
2023-05-17T11:50:02.579Z,23.58
2023-05-17T11:51:02.754Z,23.20
2023-05-17T11:52:02.583Z,23.09
2023-05-17T11:53:02.545Z,23.07
2023-05-17T11:54:02.552Z,22.96
2023-05-17T11:55:02.556Z,23.08
2023-05-17T11:56:02.559Z,22.56
2023-05-17T11:57:02.541Z,22.50
2023-05-17T11:58:02.555Z,22.67
2023-05-17T11:59:02.550Z,22.72
2023-05-17T12:00:02.718Z,22.39
2023-05-17T12:01:02.549Z,22.14
2023-05-17T12:02:02.556Z,22.12
2023-05-17T12:03:02.515Z,22.44
2023-05-17T12:04:02.503Z,22.72
2023-05-17T12:05:02.514Z,23.17
2023-05-17T12:06:02.540Z,23.55
2023-05-17T12:07:02.483Z,23.49
2023-05-17T12:08:02.470Z,23.35
2023-05-17T12:09:02.464Z,23.46
2023-05-17T12:10:02.446Z,23.23
2023-05-17T12:11:02.437Z,23.15
2023-05-17T12:12:02.450Z,23.02
2023-05-17T12:13:02.428Z,22.96
2023-05-17T12:14:02.443Z,22.84
2023-05-17T12:15:02.463Z,22.84
2023-05-17T12:16:02.399Z,22.56
2023-05-17T12:17:02.414Z,22.50
2023-05-17T12:18:02.476Z,22.96
2023-05-17T12:19:02.493Z,23.61
2023-05-17T12:20:02.455Z,24.04
2023-05-17T12:21:02.392Z,24.12
2023-05-17T12:22:02.464Z,24.20
2023-05-17T12:23:02.407Z,24.14
2023-05-17T12:24:02.360Z,23.89
2023-05-17T12:25:02.376Z,23.57
2023-05-17T12:26:02.345Z,23.32
2023-05-17T12:27:02.346Z,22.96
2023-05-17T12:28:02.331Z,23.01
2023-05-17T12:29:02.343Z,22.92
2023-05-17T12:30:02.507Z,22.94
2023-05-17T12:31:02.313Z,22.50
2023-05-17T12:32:02.304Z,22.20
2023-05-17T12:33:02.363Z,21.83
2023-05-17T12:34:02.665Z,21.95
2023-05-17T12:35:02.301Z,21.75
2023-05-17T12:36:02.281Z,21.76
2023-05-17T12:37:02.272Z,21.72
2023-05-17T12:38:02.262Z,21.39
2023-05-17T12:39:02.301Z,21.24
2023-05-17T12:40:02.282Z,21.26
2023-05-17T12:41:02.247Z,21.34
2023-05-17T12:42:02.246Z,21.44
2023-05-17T12:43:02.272Z,21.59
2023-05-17T12:44:14.744Z,21.75
2023-05-17T12:45:04.255Z,21.99
2023-05-17T12:46:03.770Z,22.19
2023-05-17T12:47:03.285Z,22.23
2023-05-17T12:48:02.201Z,22.53
2023-05-17T12:49:02.252Z,22.43
2023-05-17T12:50:02.193Z,22.52
2023-05-17T12:51:02.181Z,22.49
2023-05-17T12:52:02.158Z,22.69
2023-05-17T12:53:02.181Z,22.68
2023-05-17T12:54:02.194Z,22.71
2023-05-17T12:55:02.164Z,22.52
2023-05-17T12:56:02.156Z,22.64
2023-05-17T12:57:02.158Z,22.93
2023-05-17T12:58:02.138Z,23.17
2023-05-17T12:59:02.126Z,23.02
2023-05-17T13:00:02.119Z,23.01
2023-05-17T13:01:02.123Z,23.01
2023-05-17T13:02:02.124Z,22.62
2023-05-17T13:03:02.235Z,22.17